sensor_id;sensor_type;location;lat;lon;timestamp;temperature;humidity
18043;DHT22;9146;48.074;11.968;2024-02-16T00:00:24;4.40;99.90
18043;DHT22;9146;48.074;11.968;2024-02-16T00:02:52;4.40;99.90
18043;DHT22;9146;48.074;11.968;2024-02-16T00:05:19;4.40;99.90
18043;DHT22;9146;48.074;11.968;2024-02-16T00:07:46;4.40;99.90
18043;DHT22;9146;48.074;11.968;2024-02-16T00:10:14;4.30;99.90
18043;DHT22;9146;48.074;11.968;2024-02-16T00:12:43;4.30;99.90
18043;DHT22;9146;48.074;11.968;2024-02-16T00:15:10;3.80;99.90
18043;DHT22;9146;48.074;11.968;2024-02-16T00:17:38;4.20;99.90
18043;DHT22;9146;48.074;11.968;2024-02-16T00:20:07;4.10;99.90
18043;DHT22;9146;48.074;11.968;2024-02-16T00:22:34;4.10;99.90
18043;DHT22;9146;48.074;11.968;2024-02-16T00:25:01;4.00;99.90
18043;DHT22;9146;48.074;11.968;2024-02-16T00:27:31;4.00;99.90
18043;DHT22;9146;48.074;11.968;2024-02-16T00:29:58;3.90;99.90
18043;DHT22;9146;48.074;11.968;2024-02-16T00:32:25;4.60;99.90
18043;DHT22;9146;48.074;11.968;2024-02-16T00:34:56;3.90;99.90
18043;DHT22;9146;48.074;11.968;2024-02-16T00:37:23;3.80;99.90
18043;DHT22;9146;48.074;11.968;2024-02-16T00:39:50;3.80;99.90
18043;DHT22;9146;48.074;11.968;2024-02-16T00:42:18;3.90;99.90
18043;DHT22;9146;48.074;11.968;2024-02-16T00:44:46;3.80;99.90
18043;DHT22;9146;48.074;11.968;2024-02-16T00:47:12;4.00;99.90
18043;DHT22;9146;48.074;11.968;2024-02-16T00:49:41;4.10;99.90
18043;DHT22;9146;48.074;11.968;2024-02-16T00:52:08;4.30;99.90
18043;DHT22;9146;48.074;11.968;2024-02-16T00:54:35;4.40;99.90
18043;DHT22;9146;48.074;11.968;2024-02-16T00:57:03;4.50;99.90
18043;DHT22;9146;48.074;11.968;2024-02-16T00:59:30;4.50;99.90
18043;DHT22;9146;48.074;11.968;2024-02-16T01:01:58;4.50;99.90
18043;DHT22;9146;48.074;11.968;2024-02-16T01:04:25;4.50;99.90
18043;DHT22;9146;48.074;11.968;2024-02-16T01:06:52;4.40;99.90
18043;DHT22;9146;48.074;11.968;2024-02-16T01:09:19;4.40;99.90
18043;DHT22;9146;48.074;11.968;2024-02-16T01:11:45;4.30;99.90
18043;DHT22;9146;48.074;11.968;2024-02-16T01:14:14;4.30;99.90
18043;DHT22;9146;48.074;11.968;2024-02-16T01:16:41;4.30;99.90
18043;DHT22;9146;48.074;11.968;2024-02-16T01:19:09;4.20;99.90
18043;DHT22;9146;48.074;11.968;2024-02-16T01:21:36;4.20;99.90
18043;DHT22;9146;48.074;11.968;2024-02-16T01:24:03;4.20;99.90
18043;DHT22;9146;48.074;11.968;2024-02-16T01:26:31;4.30;99.90
18043;DHT22;9146;48.074;11.968;2024-02-16T01:28:58;4.20;99.90
18043;DHT22;9146;48.074;11.968;2024-02-16T01:31:25;4.10;99.90
18043;DHT22;9146;48.074;11.968;2024-02-16T01:33:51;4.10;99.90
18043;DHT22;9146;48.074;11.968;2024-02-16T01:36:20;4.10;99.90
18043;DHT22;9146;48.074;11.968;2024-02-16T01:38:47;4.10;99.90
18043;DHT22;9146;48.074;11.968;2024-02-16T01:41:13;4.10;99.90
18043;DHT22;9146;48.074;11.968;2024-02-16T01:43:40;4.10;99.90
18043;DHT22;9146;48.074;11.968;2024-02-16T01:46:07;4.10;99.90
18043;DHT22;9146;48.074;11.968;2024-02-16T01:48:34;4.10;99.90
18043;DHT22;9146;48.074;11.968;2024-02-16T01:51:01;4.20;99.90
18043;DHT22;9146;48.074;11.968;2024-02-16T01:53:31;4.20;99.90
18043;DHT22;9146;48.074;11.968;2024-02-16T01:56:02;4.20;99.90
18043;DHT22;9146;48.074;11.968;2024-02-16T01:58:29;4.20;99.90
18043;DHT22;9146;48.074;11.968;2024-02-16T02:00:56;4.20;99.90
18043;DHT22;9146;48.074;11.968;2024-02-16T02:03:23;4.10;99.90
18043;DHT22;9146;48.074;11.968;2024-02-16T02:05:49;4.00;99.90
18043;DHT22;9146;48.074;11.968;2024-02-16T02:08:20;4.10;99.90
18043;DHT22;9146;48.074;11.968;2024-02-16T02:10:48;3.70;99.90
18043;DHT22;9146;48.074;11.968;2024-02-16T02:13:15;4.10;99.90
18043;DHT22;9146;48.074;11.968;2024-02-16T02:15:42;4.10;99.90
18043;DHT22;9146;48.074;11.968;2024-02-16T02:18:09;4.30;99.90
18043;DHT22;9146;48.074;11.968;2024-02-16T02:20:36;4.20;99.90
18043;DHT22;9146;48.074;11.968;2024-02-16T02:23:05;4.30;99.90
18043;DHT22;9146;48.074;11.968;2024-02-16T02:25:31;4.40;99.90
18043;DHT22;9146;48.074;11.968;2024-02-16T02:27:59;4.40;99.90
18043;DHT22;9146;48.074;11.968;2024-02-16T02:30:26;4.50;99.90
18043;DHT22;9146;48.074;11.968;2024-02-16T02:32:53;4.50;99.90
18043;DHT22;9146;48.074;11.968;2024-02-16T02:35:20;4.50;99.90
18043;DHT22;9146;48.074;11.968;2024-02-16T02:37:47;4.60;99.90
18043;DHT22;9146;48.074;11.968;2024-02-16T02:40:16;4.60;99.90
18043;DHT22;9146;48.074;11.968;2024-02-16T02:42:43;4.70;99.90
18043;DHT22;9146;48.074;11.968;2024-02-16T02:45:10;4.60;99.90
18043;DHT22;9146;48.074;11.968;2024-02-16T02:47:37;4.60;99.90
18043;DHT22;9146;48.074;11.968;2024-02-16T02:50:05;4.60;99.90
18043;DHT22;9146;48.074;11.968;2024-02-16T02:52:34;4.60;99.90
18043;DHT22;9146;48.074;11.968;2024-02-16T02:55:01;4.60;99.90
18043;DHT22;9146;48.074;11.968;2024-02-16T02:57:29;4.60;99.90
18043;DHT22;9146;48.074;11.968;2024-02-16T03:00:03;4.60;99.90
18043;DHT22;9146;48.074;11.968;2024-02-16T03:02:31;4.70;99.90
18043;DHT22;9146;48.074;11.968;2024-02-16T03:04:58;4.70;99.90
18043;DHT22;9146;48.074;11.968;2024-02-16T03:07:25;4.60;99.90
18043;DHT22;9146;48.074;11.968;2024-02-16T03:09:52;4.70;99.90
18043;DHT22;9146;48.074;11.968;2024-02-16T03:12:19;4.60;99.90
18043;DHT22;9146;48.074;11.968;2024-02-16T03:14:47;4.70;99.90
18043;DHT22;9146;48.074;11.968;2024-02-16T03:17:14;4.60;99.90
18043;DHT22;9146;48.074;11.968;2024-02-16T03:19:41;4.60;99.90
18043;DHT22;9146;48.074;11.968;2024-02-16T03:22:08;4.60;99.90
18043;DHT22;9146;48.074;11.968;2024-02-16T03:24:35;4.60;99.90
18043;DHT22;9146;48.074;11.968;2024-02-16T03:27:02;4.70;99.90
18043;DHT22;9146;48.074;11.968;2024-02-16T03:29:29;4.70;99.90
18043;DHT22;9146;48.074;11.968;2024-02-16T03:31:57;4.60;99.90
18043;DHT22;9146;48.074;11.968;2024-02-16T03:34:24;4.60;99.90
18043;DHT22;9146;48.074;11.968;2024-02-16T03:36:51;4.70;99.90
18043;DHT22;9146;48.074;11.968;2024-02-16T03:39:17;4.60;99.90
18043;DHT22;9146;48.074;11.968;2024-02-16T03:41:45;4.70;99.90
18043;DHT22;9146;48.074;11.968;2024-02-16T03:44:14;4.70;99.90
18043;DHT22;9146;48.074;11.968;2024-02-16T03:46:41;4.70;99.90
18043;DHT22;9146;48.074;11.968;2024-02-16T03:49:10;4.80;99.90
18043;DHT22;9146;48.074;11.968;2024-02-16T03:51:37;4.80;99.90
18043;DHT22;9146;48.074;11.968;2024-02-16T03:54:04;4.80;99.90
18043;DHT22;9146;48.074;11.968;2024-02-16T03:56:31;4.80;99.90
18043;DHT22;9146;48.074;11.968;2024-02-16T03:58:58;4.80;99.90
18043;DHT22;9146;48.074;11.968;2024-02-16T04:01:24;4.70;99.90
18043;DHT22;9146;48.074;11.968;2024-02-16T04:03:51;4.80;99.90
18043;DHT22;9146;48.074;11.968;2024-02-16T04:06:20;4.80;99.90
18043;DHT22;9146;48.074;11.968;2024-02-16T04:08:47;4.80;99.90
18043;DHT22;9146;48.074;11.968;2024-02-16T04:11:14;4.80;99.90
18043;DHT22;9146;48.074;11.968;2024-02-16T04:13:41;4.80;99.90
18043;DHT22;9146;48.074;11.968;2024-02-16T04:16:08;4.80;99.90
18043;DHT22;9146;48.074;11.968;2024-02-16T04:18:36;4.80;99.90
18043;DHT22;9146;48.074;11.968;2024-02-16T04:21:04;4.80;99.90
18043;DHT22;9146;48.074;11.968;2024-02-16T04:23:33;4.90;99.90
18043;DHT22;9146;48.074;11.968;2024-02-16T04:25:59;4.90;99.90
18043;DHT22;9146;48.074;11.968;2024-02-16T04:28:26;4.90;99.90
18043;DHT22;9146;48.074;11.968;2024-02-16T04:30:53;4.80;99.90
18043;DHT22;9146;48.074;11.968;2024-02-16T04:33:20;4.80;99.90
18043;DHT22;9146;48.074;11.968;2024-02-16T04:35:47;4.80;99.90
18043;DHT22;9146;48.074;11.968;2024-02-16T04:38:16;4.80;99.90
18043;DHT22;9146;48.074;11.968;2024-02-16T04:40:44;4.80;99.90
18043;DHT22;9146;48.074;11.968;2024-02-16T04:43:12;4.80;99.90
18043;DHT22;9146;48.074;11.968;2024-02-16T04:45:40;4.80;99.90
18043;DHT22;9146;48.074;11.968;2024-02-16T04:48:08;4.70;99.90
18043;DHT22;9146;48.074;11.968;2024-02-16T04:50:35;4.70;99.90
18043;DHT22;9146;48.074;11.968;2024-02-16T04:53:02;4.70;99.90
18043;DHT22;9146;48.074;11.968;2024-02-16T04:55:29;4.70;99.90
18043;DHT22;9146;48.074;11.968;2024-02-16T04:57:57;4.60;99.90
18043;DHT22;9146;48.074;11.968;2024-02-16T05:00:25;4.60;99.90
18043;DHT22;9146;48.074;11.968;2024-02-16T05:02:53;4.60;99.90
18043;DHT22;9146;48.074;11.968;2024-02-16T05:05:19;4.60;99.90
18043;DHT22;9146;48.074;11.968;2024-02-16T05:07:48;4.60;99.90
18043;DHT22;9146;48.074;11.968;2024-02-16T05:10:15;4.50;99.90
18043;DHT22;9146;48.074;11.968;2024-02-16T05:12:42;4.50;99.90
18043;DHT22;9146;48.074;11.968;2024-02-16T05:15:11;4.50;99.90
18043;DHT22;9146;48.074;11.968;2024-02-16T05:17:39;4.50;99.90
18043;DHT22;9146;48.074;11.968;2024-02-16T05:20:10;4.60;99.90
18043;DHT22;9146;48.074;11.968;2024-02-16T05:22:41;4.60;99.90
18043;DHT22;9146;48.074;11.968;2024-02-16T05:27:37;4.50;99.90
18043;DHT22;9146;48.074;11.968;2024-02-16T05:30:05;4.50;99.90
18043;DHT22;9146;48.074;11.968;2024-02-16T05:32:36;4.50;99.90
18043;DHT22;9146;48.074;11.968;2024-02-16T05:35:03;4.40;99.90
18043;DHT22;9146;48.074;11.968;2024-02-16T05:37:37;4.40;99.90
18043;DHT22;9146;48.074;11.968;2024-02-16T05:40:07;4.40;99.90
18043;DHT22;9146;48.074;11.968;2024-02-16T05:42:45;4.40;99.90
18043;DHT22;9146;48.074;11.968;2024-02-16T05:45:13;4.40;99.90
18043;DHT22;9146;48.074;11.968;2024-02-16T05:47:41;4.30;99.90
18043;DHT22;9146;48.074;11.968;2024-02-16T05:50:08;4.30;99.90
18043;DHT22;9146;48.074;11.968;2024-02-16T05:52:37;4.20;99.90
18043;DHT22;9146;48.074;11.968;2024-02-16T05:55:05;4.20;99.90
18043;DHT22;9146;48.074;11.968;2024-02-16T05:57:32;4.20;99.90
18043;DHT22;9146;48.074;11.968;2024-02-16T05:59:59;4.20;99.90
18043;DHT22;9146;48.074;11.968;2024-02-16T06:02:26;4.20;99.90
18043;DHT22;9146;48.074;11.968;2024-02-16T06:04:55;4.10;99.90
18043;DHT22;9146;48.074;11.968;2024-02-16T06:07:23;4.10;99.90
18043;DHT22;9146;48.074;11.968;2024-02-16T06:09:50;4.10;99.90
18043;DHT22;9146;48.074;11.968;2024-02-16T06:12:17;4.00;99.90
18043;DHT22;9146;48.074;11.968;2024-02-16T06:14:44;4.00;99.90
18043;DHT22;9146;48.074;11.968;2024-02-16T06:17:11;4.00;99.90
18043;DHT22;9146;48.074;11.968;2024-02-16T06:19:40;4.00;99.90
18043;DHT22;9146;48.074;11.968;2024-02-16T06:22:08;4.00;99.90
18043;DHT22;9146;48.074;11.968;2024-02-16T06:24:35;4.00;99.90
18043;DHT22;9146;48.074;11.968;2024-02-16T06:27:03;4.00;99.90
18043;DHT22;9146;48.074;11.968;2024-02-16T06:29:30;4.00;99.90
18043;DHT22;9146;48.074;11.968;2024-02-16T06:31:57;4.00;99.90
18043;DHT22;9146;48.074;11.968;2024-02-16T06:34:24;3.90;99.90
18043;DHT22;9146;48.074;11.968;2024-02-16T06:36:51;3.90;99.90
18043;DHT22;9146;48.074;11.968;2024-02-16T06:39:19;3.90;99.90
18043;DHT22;9146;48.074;11.968;2024-02-16T06:41:46;3.90;99.90
18043;DHT22;9146;48.074;11.968;2024-02-16T06:44:15;3.90;99.90
18043;DHT22;9146;48.074;11.968;2024-02-16T06:46:42;4.00;99.90
18043;DHT22;9146;48.074;11.968;2024-02-16T06:49:09;4.00;99.90
18043;DHT22;9146;48.074;11.968;2024-02-16T06:51:37;4.10;99.90
18043;DHT22;9146;48.074;11.968;2024-02-16T06:54:04;4.30;99.90
18043;DHT22;9146;48.074;11.968;2024-02-16T06:56:34;4.40;99.90
18043;DHT22;9146;48.074;11.968;2024-02-16T06:59:01;4.50;99.90
18043;DHT22;9146;48.074;11.968;2024-02-16T07:01:28;4.70;99.90
18043;DHT22;9146;48.074;11.968;2024-02-16T07:03:55;4.90;99.90
18043;DHT22;9146;48.074;11.968;2024-02-16T07:06:22;5.00;99.90
18043;DHT22;9146;48.074;11.968;2024-02-16T07:08:48;5.20;99.90
18043;DHT22;9146;48.074;11.968;2024-02-16T07:11:16;5.40;99.90
18043;DHT22;9146;48.074;11.968;2024-02-16T07:13:45;5.50;99.90
18043;DHT22;9146;48.074;11.968;2024-02-16T07:16:12;5.70;99.90
18043;DHT22;9146;48.074;11.968;2024-02-16T07:18:39;5.80;99.90
18043;DHT22;9146;48.074;11.968;2024-02-16T07:21:07;6.00;99.90
18043;DHT22;9146;48.074;11.968;2024-02-16T07:23:35;6.20;99.90
18043;DHT22;9146;48.074;11.968;2024-02-16T07:26:01;6.30;99.90
18043;DHT22;9146;48.074;11.968;2024-02-16T07:28:28;6.50;99.90
18043;DHT22;9146;48.074;11.968;2024-02-16T07:30:57;6.60;99.90
18043;DHT22;9146;48.074;11.968;2024-02-16T07:33:23;6.70;99.90
18043;DHT22;9146;48.074;11.968;2024-02-16T07:35:53;6.80;99.90
18043;DHT22;9146;48.074;11.968;2024-02-16T07:38:20;6.90;99.90
18043;DHT22;9146;48.074;11.968;2024-02-16T07:40:48;7.00;99.90
18043;DHT22;9146;48.074;11.968;2024-02-16T07:43:16;7.10;99.90
18043;DHT22;9146;48.074;11.968;2024-02-16T07:45:43;7.10;99.90
18043;DHT22;9146;48.074;11.968;2024-02-16T07:48:11;7.20;99.90
18043;DHT22;9146;48.074;11.968;2024-02-16T07:50:38;7.20;99.90
18043;DHT22;9146;48.074;11.968;2024-02-16T07:53:05;7.20;99.90
18043;DHT22;9146;48.074;11.968;2024-02-16T07:55:31;7.20;99.90
18043;DHT22;9146;48.074;11.968;2024-02-16T07:57:58;7.20;99.90
18043;DHT22;9146;48.074;11.968;2024-02-16T08:00:25;7.10;99.90
18043;DHT22;9146;48.074;11.968;2024-02-16T08:02:53;7.10;99.90
18043;DHT22;9146;48.074;11.968;2024-02-16T08:05:21;7.00;99.90
18043;DHT22;9146;48.074;11.968;2024-02-16T08:07:50;6.90;99.90
18043;DHT22;9146;48.074;11.968;2024-02-16T08:10:19;6.80;99.90
18043;DHT22;9146;48.074;11.968;2024-02-16T08:12:47;6.70;99.90
18043;DHT22;9146;48.074;11.968;2024-02-16T08:15:14;6.70;99.90
18043;DHT22;9146;48.074;11.968;2024-02-16T08:17:41;6.70;99.90
18043;DHT22;9146;48.074;11.968;2024-02-16T08:20:08;6.70;99.90
18043;DHT22;9146;48.074;11.968;2024-02-16T08:22:38;6.60;99.90
18043;DHT22;9146;48.074;11.968;2024-02-16T08:25:06;6.60;99.90
18043;DHT22;9146;48.074;11.968;2024-02-16T08:27:33;6.60;99.90
18043;DHT22;9146;48.074;11.968;2024-02-16T08:30:00;6.60;99.90
18043;DHT22;9146;48.074;11.968;2024-02-16T08:32:27;6.60;99.90
18043;DHT22;9146;48.074;11.968;2024-02-16T08:34:55;6.60;99.90
18043;DHT22;9146;48.074;11.968;2024-02-16T08:37:24;6.70;99.90
18043;DHT22;9146;48.074;11.968;2024-02-16T08:39:52;6.70;99.90
18043;DHT22;9146;48.074;11.968;2024-02-16T08:42:20;6.80;99.90
18043;DHT22;9146;48.074;11.968;2024-02-16T08:44:48;6.80;99.90
18043;DHT22;9146;48.074;11.968;2024-02-16T08:47:15;6.90;99.90
18043;DHT22;9146;48.074;11.968;2024-02-16T08:49:42;6.90;99.90
18043;DHT22;9146;48.074;11.968;2024-02-16T08:52:09;7.00;99.90
18043;DHT22;9146;48.074;11.968;2024-02-16T08:54:35;7.00;99.90
18043;DHT22;9146;48.074;11.968;2024-02-16T08:57:05;7.10;99.90
18043;DHT22;9146;48.074;11.968;2024-02-16T08:59:32;7.20;99.90
18043;DHT22;9146;48.074;11.968;2024-02-16T09:02:00;7.20;99.90
18043;DHT22;9146;48.074;11.968;2024-02-16T09:04:27;7.30;99.90
18043;DHT22;9146;48.074;11.968;2024-02-16T09:06:53;7.40;99.90
18043;DHT22;9146;48.074;11.968;2024-02-16T09:09:20;7.50;99.90
18043;DHT22;9146;48.074;11.968;2024-02-16T09:11:48;7.60;99.90
18043;DHT22;9146;48.074;11.968;2024-02-16T09:14:16;7.70;99.90
18043;DHT22;9146;48.074;11.968;2024-02-16T09:16:43;7.80;99.90
18043;DHT22;9146;48.074;11.968;2024-02-16T09:19:10;7.90;99.90
18043;DHT22;9146;48.074;11.968;2024-02-16T09:21:37;8.00;99.90
18043;DHT22;9146;48.074;11.968;2024-02-16T09:24:05;8.20;99.90
18043;DHT22;9146;48.074;11.968;2024-02-16T09:26:36;8.30;99.90
18043;DHT22;9146;48.074;11.968;2024-02-16T09:29:03;8.40;99.90
18043;DHT22;9146;48.074;11.968;2024-02-16T09:31:31;8.50;99.90
18043;DHT22;9146;48.074;11.968;2024-02-16T09:33:58;8.60;99.90
18043;DHT22;9146;48.074;11.968;2024-02-16T09:36:25;8.80;99.90
18043;DHT22;9146;48.074;11.968;2024-02-16T09:38:54;8.90;99.90
18043;DHT22;9146;48.074;11.968;2024-02-16T09:41:21;9.10;99.90
18043;DHT22;9146;48.074;11.968;2024-02-16T09:43:48;9.20;99.90
18043;DHT22;9146;48.074;11.968;2024-02-16T09:46:19;9.30;99.90
18043;DHT22;9146;48.074;11.968;2024-02-16T09:48:49;9.40;99.90
18043;DHT22;9146;48.074;11.968;2024-02-16T09:51:18;9.60;99.90
18043;DHT22;9146;48.074;11.968;2024-02-16T09:53:50;9.70;99.90
18043;DHT22;9146;48.074;11.968;2024-02-16T09:56:19;9.90;99.90
18043;DHT22;9146;48.074;11.968;2024-02-16T09:58:46;10.00;99.90
18043;DHT22;9146;48.074;11.968;2024-02-16T10:01:18;10.10;99.90
18043;DHT22;9146;48.074;11.968;2024-02-16T10:03:46;10.30;99.90
18043;DHT22;9146;48.074;11.968;2024-02-16T10:06:16;10.50;99.90
18043;DHT22;9146;48.074;11.968;2024-02-16T10:08:52;10.60;99.90
18043;DHT22;9146;48.074;11.968;2024-02-16T10:11:22;10.70;99.90
18043;DHT22;9146;48.074;11.968;2024-02-16T10:13:57;10.80;99.90
18043;DHT22;9146;48.074;11.968;2024-02-16T10:16:24;10.90;99.90
18043;DHT22;9146;48.074;11.968;2024-02-16T10:18:51;11.10;99.90
18043;DHT22;9146;48.074;11.968;2024-02-16T10:21:34;11.20;99.90
18043;DHT22;9146;48.074;11.968;2024-02-16T10:24:02;11.40;99.90
18043;DHT22;9146;48.074;11.968;2024-02-16T10:26:29;11.50;99.90
18043;DHT22;9146;48.074;11.968;2024-02-16T10:28:57;11.70;99.90
18043;DHT22;9146;48.074;11.968;2024-02-16T10:31:25;11.80;99.90
18043;DHT22;9146;48.074;11.968;2024-02-16T10:33:57;12.00;99.90
18043;DHT22;9146;48.074;11.968;2024-02-16T10:36:25;12.20;99.90
18043;DHT22;9146;48.074;11.968;2024-02-16T10:38:55;12.30;99.90
18043;DHT22;9146;48.074;11.968;2024-02-16T10:41:26;12.40;99.90
18043;DHT22;9146;48.074;11.968;2024-02-16T10:43:55;12.60;99.90
18043;DHT22;9146;48.074;11.968;2024-02-16T10:46:23;12.70;99.90
18043;DHT22;9146;48.074;11.968;2024-02-16T10:48:50;12.80;99.90
18043;DHT22;9146;48.074;11.968;2024-02-16T10:51:21;13.00;99.90
18043;DHT22;9146;48.074;11.968;2024-02-16T10:53:52;13.10;99.90
18043;DHT22;9146;48.074;11.968;2024-02-16T10:56:32;13.20;99.90
18043;DHT22;9146;48.074;11.968;2024-02-16T10:59:03;13.30;99.90
18043;DHT22;9146;48.074;11.968;2024-02-16T11:01:37;13.50;99.90
18043;DHT22;9146;48.074;11.968;2024-02-16T11:04:06;13.50;99.90
18043;DHT22;9146;48.074;11.968;2024-02-16T11:06:45;13.60;99.90
18043;DHT22;9146;48.074;11.968;2024-02-16T11:09:25;13.70;99.90
18043;DHT22;9146;48.074;11.968;2024-02-16T11:11:54;13.80;99.90
18043;DHT22;9146;48.074;11.968;2024-02-16T11:14:22;13.80;99.90
18043;DHT22;9146;48.074;11.968;2024-02-16T11:16:53;13.90;99.90
18043;DHT22;9146;48.074;11.968;2024-02-16T11:19:22;14.00;99.90
18043;DHT22;9146;48.074;11.968;2024-02-16T11:22:02;14.00;99.90
18043;DHT22;9146;48.074;11.968;2024-02-16T11:24:33;14.10;99.90
18043;DHT22;9146;48.074;11.968;2024-02-16T11:27:03;14.20;99.90
18043;DHT22;9146;48.074;11.968;2024-02-16T11:29:31;14.20;99.90
18043;DHT22;9146;48.074;11.968;2024-02-16T11:32:00;14.30;99.90
18043;DHT22;9146;48.074;11.968;2024-02-16T11:34:28;14.30;99.90
18043;DHT22;9146;48.074;11.968;2024-02-16T11:36:56;14.30;99.90
18043;DHT22;9146;48.074;11.968;2024-02-16T11:39:24;14.40;99.90
18043;DHT22;9146;48.074;11.968;2024-02-16T11:42:04;14.40;99.90
18043;DHT22;9146;48.074;11.968;2024-02-16T11:44:32;14.40;99.90
18043;DHT22;9146;48.074;11.968;2024-02-16T11:46:59;14.40;99.90
18043;DHT22;9146;48.074;11.968;2024-02-16T11:49:28;14.40;99.90
18043;DHT22;9146;48.074;11.968;2024-02-16T11:51:55;14.40;99.90
18043;DHT22;9146;48.074;11.968;2024-02-16T11:54:22;14.40;99.90
18043;DHT22;9146;48.074;11.968;2024-02-16T11:56:51;14.30;99.90
18043;DHT22;9146;48.074;11.968;2024-02-16T11:59:19;14.30;99.90
18043;DHT22;9146;48.074;11.968;2024-02-16T12:01:51;14.30;99.90
18043;DHT22;9146;48.074;11.968;2024-02-16T12:04:22;14.30;99.90
18043;DHT22;9146;48.074;11.968;2024-02-16T12:06:51;14.20;99.90
18043;DHT22;9146;48.074;11.968;2024-02-16T12:09:18;14.20;99.90
18043;DHT22;9146;48.074;11.968;2024-02-16T12:11:47;14.10;99.90
18043;DHT22;9146;48.074;11.968;2024-02-16T12:14:15;14.10;99.90
18043;DHT22;9146;48.074;11.968;2024-02-16T12:16:47;14.10;99.90
18043;DHT22;9146;48.074;11.968;2024-02-16T12:19:14;14.20;99.90
18043;DHT22;9146;48.074;11.968;2024-02-16T12:21:41;14.30;99.90
18043;DHT22;9146;48.074;11.968;2024-02-16T12:24:08;14.30;99.90
18043;DHT22;9146;48.074;11.968;2024-02-16T12:26:36;14.40;99.90
18043;DHT22;9146;48.074;11.968;2024-02-16T12:29:03;14.50;99.90
18043;DHT22;9146;48.074;11.968;2024-02-16T12:31:30;14.70;99.90
18043;DHT22;9146;48.074;11.968;2024-02-16T12:33:58;14.90;99.90
18043;DHT22;9146;48.074;11.968;2024-02-16T12:36:26;15.10;99.90
18043;DHT22;9146;48.074;11.968;2024-02-16T12:38:53;15.30;99.90
18043;DHT22;9146;48.074;11.968;2024-02-16T12:41:20;15.40;99.90
18043;DHT22;9146;48.074;11.968;2024-02-16T12:43:47;15.50;99.90
18043;DHT22;9146;48.074;11.968;2024-02-16T12:46:14;15.60;99.90
18043;DHT22;9146;48.074;11.968;2024-02-16T12:48:41;15.60;99.50
18043;DHT22;9146;48.074;11.968;2024-02-16T12:51:09;15.70;98.50
18043;DHT22;9146;48.074;11.968;2024-02-16T12:53:37;15.70;98.70
18043;DHT22;9146;48.074;11.968;2024-02-16T12:56:06;15.70;99.00
18043;DHT22;9146;48.074;11.968;2024-02-16T12:58:33;15.70;98.60
18043;DHT22;9146;48.074;11.968;2024-02-16T13:01:00;15.80;98.50
18043;DHT22;9146;48.074;11.968;2024-02-16T13:03:28;15.80;98.50
18043;DHT22;9146;48.074;11.968;2024-02-16T13:05:55;15.90;98.60
18043;DHT22;9146;48.074;11.968;2024-02-16T13:08:24;15.90;98.00
18043;DHT22;9146;48.074;11.968;2024-02-16T13:10:50;15.90;97.90
18043;DHT22;9146;48.074;11.968;2024-02-16T13:13:17;15.90;98.10
18043;DHT22;9146;48.074;11.968;2024-02-16T13:15:44;16.00;97.80
18043;DHT22;9146;48.074;11.968;2024-02-16T13:18:12;16.10;97.80
18043;DHT22;9146;48.074;11.968;2024-02-16T13:20:39;16.10;98.10
18043;DHT22;9146;48.074;11.968;2024-02-16T13:23:06;16.10;98.20
18043;DHT22;9146;48.074;11.968;2024-02-16T13:25:34;16.10;98.20
18043;DHT22;9146;48.074;11.968;2024-02-16T13:28:01;16.10;97.70
18043;DHT22;9146;48.074;11.968;2024-02-16T13:30:28;16.10;97.90
18043;DHT22;9146;48.074;11.968;2024-02-16T13:32:55;16.10;98.20
18043;DHT22;9146;48.074;11.968;2024-02-16T13:35:23;16.10;97.80
18043;DHT22;9146;48.074;11.968;2024-02-16T13:37:50;16.20;97.70
18043;DHT22;9146;48.074;11.968;2024-02-16T13:40:16;16.20;98.20
18043;DHT22;9146;48.074;11.968;2024-02-16T13:42:45;16.20;98.00
18043;DHT22;9146;48.074;11.968;2024-02-16T13:45:12;16.20;98.20
18043;DHT22;9146;48.074;11.968;2024-02-16T13:47:39;16.30;98.20
18043;DHT22;9146;48.074;11.968;2024-02-16T13:50:08;16.40;98.00
18043;DHT22;9146;48.074;11.968;2024-02-16T13:52:35;16.40;97.50
18043;DHT22;9146;48.074;11.968;2024-02-16T13:55:02;16.50;97.40
18043;DHT22;9146;48.074;11.968;2024-02-16T13:57:29;16.60;97.60
18043;DHT22;9146;48.074;11.968;2024-02-16T13:59:57;16.50;97.40
18043;DHT22;9146;48.074;11.968;2024-02-16T14:02:24;16.50;97.50
18043;DHT22;9146;48.074;11.968;2024-02-16T14:04:51;16.50;97.60
18043;DHT22;9146;48.074;11.968;2024-02-16T14:07:18;16.50;97.80
18043;DHT22;9146;48.074;11.968;2024-02-16T14:09:45;16.50;98.00
18043;DHT22;9146;48.074;11.968;2024-02-16T14:12:12;16.40;98.00
18043;DHT22;9146;48.074;11.968;2024-02-16T14:14:39;16.50;98.10
18043;DHT22;9146;48.074;11.968;2024-02-16T14:17:07;16.50;98.00
18043;DHT22;9146;48.074;11.968;2024-02-16T14:19:34;16.50;98.00
18043;DHT22;9146;48.074;11.968;2024-02-16T14:22:03;16.50;98.30
18043;DHT22;9146;48.074;11.968;2024-02-16T14:24:32;16.50;98.90
18043;DHT22;9146;48.074;11.968;2024-02-16T14:26:59;16.60;99.50
18043;DHT22;9146;48.074;11.968;2024-02-16T14:29:26;16.60;99.90
18043;DHT22;9146;48.074;11.968;2024-02-16T14:31:54;16.60;99.90
18043;DHT22;9146;48.074;11.968;2024-02-16T14:34:23;16.60;99.80
18043;DHT22;9146;48.074;11.968;2024-02-16T14:36:50;16.60;99.90
18043;DHT22;9146;48.074;11.968;2024-02-16T14:39:16;16.70;99.60
18043;DHT22;9146;48.074;11.968;2024-02-16T14:41:43;16.60;99.10
18043;DHT22;9146;48.074;11.968;2024-02-16T14:44:10;16.70;99.40
18043;DHT22;9146;48.074;11.968;2024-02-16T14:46:37;16.70;99.50
18043;DHT22;9146;48.074;11.968;2024-02-16T14:49:04;16.60;99.30
18043;DHT22;9146;48.074;11.968;2024-02-16T14:51:40;16.60;99.20
18043;DHT22;9146;48.074;11.968;2024-02-16T14:54:07;16.60;99.20
18043;DHT22;9146;48.074;11.968;2024-02-16T14:56:35;16.60;99.40
18043;DHT22;9146;48.074;11.968;2024-02-16T14:59:01;16.50;99.50
18043;DHT22;9146;48.074;11.968;2024-02-16T15:01:29;16.50;99.70
18043;DHT22;9146;48.074;11.968;2024-02-16T15:03:56;16.40;99.90
18043;DHT22;9146;48.074;11.968;2024-02-16T15:06:22;16.40;99.90
18043;DHT22;9146;48.074;11.968;2024-02-16T15:08:51;16.40;99.90
18043;DHT22;9146;48.074;11.968;2024-02-16T15:11:18;16.30;99.90
18043;DHT22;9146;48.074;11.968;2024-02-16T15:13:45;16.30;99.90
18043;DHT22;9146;48.074;11.968;2024-02-16T15:16:13;16.30;99.90
18043;DHT22;9146;48.074;11.968;2024-02-16T15:18:40;16.30;99.90
18043;DHT22;9146;48.074;11.968;2024-02-16T15:21:06;16.20;99.90
18043;DHT22;9146;48.074;11.968;2024-02-16T15:23:33;16.20;99.90
18043;DHT22;9146;48.074;11.968;2024-02-16T15:26:02;16.20;99.90
18043;DHT22;9146;48.074;11.968;2024-02-16T15:28:30;16.10;99.90
18043;DHT22;9146;48.074;11.968;2024-02-16T15:30:57;16.10;99.90
18043;DHT22;9146;48.074;11.968;2024-02-16T15:33:24;16.10;99.90
18043;DHT22;9146;48.074;11.968;2024-02-16T15:35:51;16.00;99.90
18043;DHT22;9146;48.074;11.968;2024-02-16T15:38:18;16.00;99.90
18043;DHT22;9146;48.074;11.968;2024-02-16T15:40:45;15.90;99.90
18043;DHT22;9146;48.074;11.968;2024-02-16T15:43:14;15.90;99.90
18043;DHT22;9146;48.074;11.968;2024-02-16T15:45:41;15.80;99.90